Terminal Aerodrome Forecast
Issued by NWS

Home | Current Version | Previous Version | Text Only | Print | Product List | Glossary On
Versions: 1 2 3 4 5 6 7 8 9 10 11 12 13 14 15 16 17 18 19 20 21 22 23 24 25
000
FTUS46 KPDT 172300
TAFALW
TAF
KALW 172320Z 1800/1824 VRB04KT P6SM SCT005 OVC070
      TEMPO 1800/1802 3SM BR OVC005
     FM180200 VRB02KT 1 1/2SM BR OVC004
     FM180400 15003KT 1/2SM FG OVC002
     FM180600 VRB03KT 1/4SM FG OVC001
     FM181800 VRB03KT 3SM BR OVC007=

USA.gov is the U.S. government's official web portal to all federal, state and local government web resources and services.